sensor_id;sensor_type;location;lat;lon;timestamp;P1;durP1;ratioP1;P2;durP2;ratioP2
1977;SDS011;989;53.016;8.346;2022-08-21T00:02:14;6.83;;;3.13;;
1977;SDS011;989;53.016;8.346;2022-08-21T00:04:46;9.30;;;3.27;;
1977;SDS011;989;53.016;8.346;2022-08-21T00:07:13;7.67;;;2.30;;
1977;SDS011;989;53.016;8.346;2022-08-21T00:09:39;4.43;;;2.60;;
1977;SDS011;989;53.016;8.346;2022-08-21T00:12:05;11.20;;;2.73;;
1977;SDS011;989;53.016;8.346;2022-08-21T00:14:32;12.77;;;3.27;;
1977;SDS011;989;53.016;8.346;2022-08-21T00:16:58;8.03;;;2.80;;
1977;SDS011;989;53.016;8.346;2022-08-21T00:19:24;7.10;;;3.10;;
1977;SDS011;989;53.016;8.346;2022-08-21T00:21:51;8.57;;;3.50;;
1977;SDS011;989;53.016;8.346;2022-08-21T00:24:19;11.93;;;3.67;;
1977;SDS011;989;53.016;8.346;2022-08-21T00:26:46;14.10;;;3.77;;
1977;SDS011;989;53.016;8.346;2022-08-21T00:29:12;7.73;;;3.70;;
1977;SDS011;989;53.016;8.346;2022-08-21T00:31:38;6.53;;;3.17;;
1977;SDS011;989;53.016;8.346;2022-08-21T00:34:05;9.70;;;3.60;;
1977;SDS011;989;53.016;8.346;2022-08-21T00:36:32;10.00;;;3.67;;
1977;SDS011;989;53.016;8.346;2022-08-21T00:38:59;9.23;;;3.00;;
1977;SDS011;989;53.016;8.346;2022-08-21T00:41:25;9.53;;;3.30;;
1977;SDS011;989;53.016;8.346;2022-08-21T00:43:52;7.93;;;3.47;;
1977;SDS011;989;53.016;8.346;2022-08-21T00:46:18;7.50;;;3.70;;
1977;SDS011;989;53.016;8.346;2022-08-21T00:48:44;10.37;;;4.40;;
1977;SDS011;989;53.016;8.346;2022-08-21T00:51:12;8.90;;;3.93;;
1977;SDS011;989;53.016;8.346;2022-08-21T00:53:47;5.20;;;3.10;;
1977;SDS011;989;53.016;8.346;2022-08-21T00:56:17;13.37;;;3.90;;
1977;SDS011;989;53.016;8.346;2022-08-21T00:58:46;7.23;;;3.40;;
1977;SDS011;989;53.016;8.346;2022-08-21T01:01:12;8.40;;;3.20;;
1977;SDS011;989;53.016;8.346;2022-08-21T01:03:39;7.40;;;2.97;;
1977;SDS011;989;53.016;8.346;2022-08-21T01:06:05;15.07;;;3.40;;
1977;SDS011;989;53.016;8.346;2022-08-21T01:08:32;4.77;;;3.40;;
1977;SDS011;989;53.016;8.346;2022-08-21T01:10:59;9.60;;;4.30;;
1977;SDS011;989;53.016;8.346;2022-08-21T01:13:26;7.43;;;3.70;;
1977;SDS011;989;53.016;8.346;2022-08-21T01:15:55;15.40;;;7.07;;
1977;SDS011;989;53.016;8.346;2022-08-21T01:18:24;14.13;;;3.20;;
1977;SDS011;989;53.016;8.346;2022-08-21T01:20:58;8.47;;;5.80;;
1977;SDS011;989;53.016;8.346;2022-08-21T01:23:44;11.53;;;3.30;;
1977;SDS011;989;53.016;8.346;2022-08-21T01:26:14;7.80;;;3.00;;
1977;SDS011;989;53.016;8.346;2022-08-21T01:28:52;18.03;;;3.93;;
1977;SDS011;989;53.016;8.346;2022-08-21T01:31:27;13.47;;;2.93;;
1977;SDS011;989;53.016;8.346;2022-08-21T01:33:55;9.57;;;3.90;;
1977;SDS011;989;53.016;8.346;2022-08-21T01:36:21;9.17;;;4.10;;
1977;SDS011;989;53.016;8.346;2022-08-21T01:38:48;10.30;;;4.90;;
1977;SDS011;989;53.016;8.346;2022-08-21T01:41:14;10.30;;;4.13;;
1977;SDS011;989;53.016;8.346;2022-08-21T01:43:41;16.60;;;3.77;;
1977;SDS011;989;53.016;8.346;2022-08-21T01:46:09;17.73;;;3.87;;
1977;SDS011;989;53.016;8.346;2022-08-21T01:48:36;8.73;;;3.57;;
1977;SDS011;989;53.016;8.346;2022-08-21T01:51:03;8.00;;;3.73;;
1977;SDS011;989;53.016;8.346;2022-08-21T01:53:31;9.60;;;3.87;;
1977;SDS011;989;53.016;8.346;2022-08-21T01:56:01;8.57;;;3.70;;
1977;SDS011;989;53.016;8.346;2022-08-21T01:58:29;5.90;;;3.67;;
1977;SDS011;989;53.016;8.346;2022-08-21T02:00:55;6.33;;;3.70;;
1977;SDS011;989;53.016;8.346;2022-08-21T02:03:20;13.73;;;3.57;;
1977;SDS011;989;53.016;8.346;2022-08-21T02:05:46;6.73;;;2.90;;
1977;SDS011;989;53.016;8.346;2022-08-21T02:08:12;6.37;;;3.43;;
1977;SDS011;989;53.016;8.346;2022-08-21T02:10:37;4.87;;;3.87;;
1977;SDS011;989;53.016;8.346;2022-08-21T02:13:03;11.70;;;4.00;;
1977;SDS011;989;53.016;8.346;2022-08-21T02:15:30;10.03;;;4.23;;
1977;SDS011;989;53.016;8.346;2022-08-21T02:17:57;3.40;;;3.00;;
1977;SDS011;989;53.016;8.346;2022-08-21T02:22:57;6.00;;;3.63;;
1977;SDS011;989;53.016;8.346;2022-08-21T02:25:24;4.47;;;2.60;;
1977;SDS011;989;53.016;8.346;2022-08-21T02:27:52;10.60;;;3.37;;
1977;SDS011;989;53.016;8.346;2022-08-21T02:30:22;7.93;;;3.43;;
1977;SDS011;989;53.016;8.346;2022-08-21T02:32:52;9.50;;;3.50;;
1977;SDS011;989;53.016;8.346;2022-08-21T02:35:18;7.10;;;3.83;;
1977;SDS011;989;53.016;8.346;2022-08-21T02:40:19;9.70;;;4.10;;
1977;SDS011;989;53.016;8.346;2022-08-21T02:42:48;8.23;;;4.00;;
1977;SDS011;989;53.016;8.346;2022-08-21T02:45:14;9.87;;;5.80;;
1977;SDS011;989;53.016;8.346;2022-08-21T02:47:52;15.27;;;4.23;;
1977;SDS011;989;53.016;8.346;2022-08-21T02:50:27;7.23;;;3.50;;
1977;SDS011;989;53.016;8.346;2022-08-21T02:52:58;11.57;;;4.60;;
1977;SDS011;989;53.016;8.346;2022-08-21T02:55:26;10.50;;;3.70;;
1977;SDS011;989;53.016;8.346;2022-08-21T02:57:55;8.63;;;3.63;;
1977;SDS011;989;53.016;8.346;2022-08-21T03:00:23;9.50;;;4.70;;
1977;SDS011;989;53.016;8.346;2022-08-21T03:02:53;7.33;;;3.73;;
1977;SDS011;989;53.016;8.346;2022-08-21T03:05:20;6.93;;;3.50;;
1977;SDS011;989;53.016;8.346;2022-08-21T03:07:46;10.40;;;4.23;;
1977;SDS011;989;53.016;8.346;2022-08-21T03:10:13;6.97;;;4.73;;
1977;SDS011;989;53.016;8.346;2022-08-21T03:12:40;11.60;;;4.10;;
1977;SDS011;989;53.016;8.346;2022-08-21T03:15:09;12.23;;;4.40;;
1977;SDS011;989;53.016;8.346;2022-08-21T03:17:37;13.93;;;4.07;;
1977;SDS011;989;53.016;8.346;2022-08-21T03:20:04;8.13;;;4.93;;
1977;SDS011;989;53.016;8.346;2022-08-21T03:22:33;8.70;;;3.90;;
1977;SDS011;989;53.016;8.346;2022-08-21T03:24:59;9.40;;;4.50;;
1977;SDS011;989;53.016;8.346;2022-08-21T03:27:26;8.80;;;3.87;;
1977;SDS011;989;53.016;8.346;2022-08-21T03:29:53;14.70;;;4.53;;
1977;SDS011;989;53.016;8.346;2022-08-21T03:32:20;4.93;;;3.57;;
1977;SDS011;989;53.016;8.346;2022-08-21T03:34:46;11.30;;;4.17;;
1977;SDS011;989;53.016;8.346;2022-08-21T03:37:12;8.10;;;3.63;;
1977;SDS011;989;53.016;8.346;2022-08-21T03:39:41;8.07;;;4.70;;
1977;SDS011;989;53.016;8.346;2022-08-21T03:42:07;11.93;;;4.87;;
1977;SDS011;989;53.016;8.346;2022-08-21T03:44:33;12.67;;;4.67;;
1977;SDS011;989;53.016;8.346;2022-08-21T03:46:59;14.33;;;5.07;;
1977;SDS011;989;53.016;8.346;2022-08-21T03:49:25;8.73;;;4.70;;
1977;SDS011;989;53.016;8.346;2022-08-21T03:51:52;7.87;;;3.77;;
1977;SDS011;989;53.016;8.346;2022-08-21T03:54:18;9.87;;;5.20;;
1977;SDS011;989;53.016;8.346;2022-08-21T03:56:44;9.17;;;4.70;;
1977;SDS011;989;53.016;8.346;2022-08-21T03:59:10;22.00;;;5.10;;
1977;SDS011;989;53.016;8.346;2022-08-21T04:01:36;11.83;;;4.50;;
1977;SDS011;989;53.016;8.346;2022-08-21T04:04:03;7.93;;;5.27;;
1977;SDS011;989;53.016;8.346;2022-08-21T04:06:29;7.70;;;4.90;;
1977;SDS011;989;53.016;8.346;2022-08-21T04:08:55;10.70;;;5.13;;
1977;SDS011;989;53.016;8.346;2022-08-21T04:11:21;8.67;;;5.37;;
1977;SDS011;989;53.016;8.346;2022-08-21T04:13:47;9.40;;;5.20;;
1977;SDS011;989;53.016;8.346;2022-08-21T04:16:12;10.87;;;5.03;;
1977;SDS011;989;53.016;8.346;2022-08-21T04:18:39;13.10;;;4.87;;
1977;SDS011;989;53.016;8.346;2022-08-21T04:21:05;16.47;;;5.90;;
1977;SDS011;989;53.016;8.346;2022-08-21T04:23:35;14.43;;;5.37;;
1977;SDS011;989;53.016;8.346;2022-08-21T04:26:01;16.70;;;6.70;;
1977;SDS011;989;53.016;8.346;2022-08-21T04:28:27;12.60;;;5.67;;
1977;SDS011;989;53.016;8.346;2022-08-21T04:30:54;21.80;;;5.60;;
1977;SDS011;989;53.016;8.346;2022-08-21T04:33:21;13.90;;;6.70;;
1977;SDS011;989;53.016;8.346;2022-08-21T04:35:47;16.67;;;7.33;;
1977;SDS011;989;53.016;8.346;2022-08-21T04:38:14;8.17;;;6.13;;
1977;SDS011;989;53.016;8.346;2022-08-21T04:40:40;16.00;;;7.23;;
1977;SDS011;989;53.016;8.346;2022-08-21T04:43:06;12.63;;;6.53;;
1977;SDS011;989;53.016;8.346;2022-08-21T04:45:38;12.73;;;5.93;;
1977;SDS011;989;53.016;8.346;2022-08-21T04:48:08;13.53;;;7.00;;
1977;SDS011;989;53.016;8.346;2022-08-21T04:53:35;16.40;;;8.80;;
1977;SDS011;989;53.016;8.346;2022-08-21T04:56:11;14.50;;;8.93;;
1977;SDS011;989;53.016;8.346;2022-08-21T04:58:40;15.67;;;9.30;;
1977;SDS011;989;53.016;8.346;2022-08-21T05:01:08;16.60;;;8.60;;
1977;SDS011;989;53.016;8.346;2022-08-21T05:03:39;19.57;;;8.90;;
1977;SDS011;989;53.016;8.346;2022-08-21T05:06:07;19.23;;;8.07;;
1977;SDS011;989;53.016;8.346;2022-08-21T05:08:35;14.23;;;7.33;;
1977;SDS011;989;53.016;8.346;2022-08-21T05:11:03;11.77;;;8.90;;
1977;SDS011;989;53.016;8.346;2022-08-21T05:13:29;13.10;;;8.00;;
1977;SDS011;989;53.016;8.346;2022-08-21T05:15:55;14.40;;;8.33;;
1977;SDS011;989;53.016;8.346;2022-08-21T05:18:21;18.37;;;9.80;;
1977;SDS011;989;53.016;8.346;2022-08-21T05:20:47;16.73;;;9.73;;
1977;SDS011;989;53.016;8.346;2022-08-21T05:23:13;18.27;;;10.57;;
1977;SDS011;989;53.016;8.346;2022-08-21T05:25:40;17.57;;;9.80;;
1977;SDS011;989;53.016;8.346;2022-08-21T05:28:06;20.00;;;9.00;;
1977;SDS011;989;53.016;8.346;2022-08-21T05:30:32;15.40;;;8.33;;
1977;SDS011;989;53.016;8.346;2022-08-21T05:32:59;16.80;;;9.60;;
1977;SDS011;989;53.016;8.346;2022-08-21T05:35:28;13.77;;;9.30;;
1977;SDS011;989;53.016;8.346;2022-08-21T05:37:55;16.40;;;10.00;;
1977;SDS011;989;53.016;8.346;2022-08-21T05:40:21;17.83;;;9.50;;
1977;SDS011;989;53.016;8.346;2022-08-21T05:42:48;14.53;;;8.80;;
1977;SDS011;989;53.016;8.346;2022-08-21T05:45:15;18.80;;;9.17;;
1977;SDS011;989;53.016;8.346;2022-08-21T05:47:41;17.63;;;10.07;;
1977;SDS011;989;53.016;8.346;2022-08-21T05:50:08;17.87;;;10.13;;
1977;SDS011;989;53.016;8.346;2022-08-21T05:52:34;15.90;;;10.03;;
1977;SDS011;989;53.016;8.346;2022-08-21T05:54:59;24.33;;;9.77;;
1977;SDS011;989;53.016;8.346;2022-08-21T05:57:25;23.10;;;10.70;;
1977;SDS011;989;53.016;8.346;2022-08-21T05:59:51;20.07;;;10.80;;
1977;SDS011;989;53.016;8.346;2022-08-21T06:02:17;21.37;;;10.47;;
1977;SDS011;989;53.016;8.346;2022-08-21T06:04:44;20.47;;;9.70;;
1977;SDS011;989;53.016;8.346;2022-08-21T06:07:10;21.90;;;10.07;;
1977;SDS011;989;53.016;8.346;2022-08-21T06:09:37;18.53;;;9.90;;
1977;SDS011;989;53.016;8.346;2022-08-21T06:12:10;20.70;;;10.23;;
1977;SDS011;989;53.016;8.346;2022-08-21T06:14:38;20.03;;;9.60;;
1977;SDS011;989;53.016;8.346;2022-08-21T06:17:06;19.47;;;10.27;;
1977;SDS011;989;53.016;8.346;2022-08-21T06:19:36;14.57;;;10.20;;
1977;SDS011;989;53.016;8.346;2022-08-21T06:22:02;18.27;;;10.50;;
1977;SDS011;989;53.016;8.346;2022-08-21T06:24:28;15.50;;;10.07;;
1977;SDS011;989;53.016;8.346;2022-08-21T06:26:54;18.60;;;9.33;;
1977;SDS011;989;53.016;8.346;2022-08-21T06:29:20;15.77;;;9.37;;
1977;SDS011;989;53.016;8.346;2022-08-21T06:31:47;26.07;;;8.73;;
1977;SDS011;989;53.016;8.346;2022-08-21T06:34:16;13.33;;;9.20;;
1977;SDS011;989;53.016;8.346;2022-08-21T06:36:42;17.30;;;9.40;;
1977;SDS011;989;53.016;8.346;2022-08-21T06:39:08;19.90;;;8.60;;
1977;SDS011;989;53.016;8.346;2022-08-21T06:41:34;17.27;;;8.43;;
1977;SDS011;989;53.016;8.346;2022-08-21T06:44:00;15.67;;;8.77;;
1977;SDS011;989;53.016;8.346;2022-08-21T06:46:28;14.70;;;8.17;;
1977;SDS011;989;53.016;8.346;2022-08-21T06:48:55;10.77;;;7.20;;
1977;SDS011;989;53.016;8.346;2022-08-21T06:51:22;14.47;;;8.00;;
1977;SDS011;989;53.016;8.346;2022-08-21T06:53:48;39.70;;;9.07;;
1977;SDS011;989;53.016;8.346;2022-08-21T06:56:14;13.60;;;8.00;;
1977;SDS011;989;53.016;8.346;2022-08-21T06:58:40;14.00;;;7.87;;
1977;SDS011;989;53.016;8.346;2022-08-21T07:01:05;12.90;;;7.40;;
1977;SDS011;989;53.016;8.346;2022-08-21T07:03:35;21.97;;;7.00;;
1977;SDS011;989;53.016;8.346;2022-08-21T07:06:05;13.73;;;7.53;;
1977;SDS011;989;53.016;8.346;2022-08-21T07:08:32;17.57;;;7.93;;
1977;SDS011;989;53.016;8.346;2022-08-21T07:11:00;11.30;;;6.40;;
1977;SDS011;989;53.016;8.346;2022-08-21T07:13:29;16.37;;;7.20;;
1977;SDS011;989;53.016;8.346;2022-08-21T07:15:55;14.03;;;6.50;;
1977;SDS011;989;53.016;8.346;2022-08-21T07:18:21;23.63;;;7.67;;
1977;SDS011;989;53.016;8.346;2022-08-21T07:20:47;16.97;;;7.57;;
1977;SDS011;989;53.016;8.346;2022-08-21T07:23:18;16.90;;;8.03;;
1977;SDS011;989;53.016;8.346;2022-08-21T07:25:50;10.97;;;6.17;;
1977;SDS011;989;53.016;8.346;2022-08-21T07:28:15;13.03;;;6.30;;
1977;SDS011;989;53.016;8.346;2022-08-21T07:30:42;18.67;;;7.60;;
1977;SDS011;989;53.016;8.346;2022-08-21T07:33:07;14.00;;;6.10;;
1977;SDS011;989;53.016;8.346;2022-08-21T07:35:33;13.00;;;4.27;;
1977;SDS011;989;53.016;8.346;2022-08-21T07:37:59;10.63;;;5.23;;
1977;SDS011;989;53.016;8.346;2022-08-21T07:40:25;22.47;;;6.57;;
1977;SDS011;989;53.016;8.346;2022-08-21T07:42:51;8.10;;;4.20;;
1977;SDS011;989;53.016;8.346;2022-08-21T07:45:17;12.63;;;4.20;;
1977;SDS011;989;53.016;8.346;2022-08-21T07:47:46;11.67;;;3.30;;
1977;SDS011;989;53.016;8.346;2022-08-21T07:50:12;14.57;;;4.40;;
1977;SDS011;989;53.016;8.346;2022-08-21T07:52:40;8.93;;;3.30;;
1977;SDS011;989;53.016;8.346;2022-08-21T07:55:08;19.87;;;5.40;;
1977;SDS011;989;53.016;8.346;2022-08-21T07:57:37;8.87;;;2.90;;
1977;SDS011;989;53.016;8.346;2022-08-21T08:00:04;11.03;;;3.00;;
1977;SDS011;989;53.016;8.346;2022-08-21T08:02:34;8.47;;;3.40;;
1977;SDS011;989;53.016;8.346;2022-08-21T08:05:01;8.17;;;3.70;;
1977;SDS011;989;53.016;8.346;2022-08-21T08:07:29;8.87;;;3.23;;
1977;SDS011;989;53.016;8.346;2022-08-21T08:09:55;8.60;;;3.67;;
1977;SDS011;989;53.016;8.346;2022-08-21T08:12:21;19.10;;;3.73;;
1977;SDS011;989;53.016;8.346;2022-08-21T08:14:47;12.90;;;4.30;;
1977;SDS011;989;53.016;8.346;2022-08-21T08:17:12;13.80;;;2.73;;
1977;SDS011;989;53.016;8.346;2022-08-21T08:19:38;12.43;;;2.70;;
1977;SDS011;989;53.016;8.346;2022-08-21T08:22:17;12.43;;;3.40;;
1977;SDS011;989;53.016;8.346;2022-08-21T08:24:46;12.00;;;3.20;;
1977;SDS011;989;53.016;8.346;2022-08-21T08:27:13;9.40;;;2.70;;
1977;SDS011;989;53.016;8.346;2022-08-21T08:29:41;8.50;;;2.50;;
1977;SDS011;989;53.016;8.346;2022-08-21T08:32:07;9.50;;;3.37;;
1977;SDS011;989;53.016;8.346;2022-08-21T08:34:34;5.80;;;2.40;;
1977;SDS011;989;53.016;8.346;2022-08-21T08:37:01;9.53;;;3.90;;
1977;SDS011;989;53.016;8.346;2022-08-21T08:39:28;7.70;;;3.43;;
1977;SDS011;989;53.016;8.346;2022-08-21T08:42:04;10.53;;;4.17;;
1977;SDS011;989;53.016;8.346;2022-08-21T08:44:39;8.87;;;3.00;;
1977;SDS011;989;53.016;8.346;2022-08-21T08:47:07;13.40;;;3.00;;
1977;SDS011;989;53.016;8.346;2022-08-21T08:49:55;16.30;;;4.40;;
1977;SDS011;989;53.016;8.346;2022-08-21T08:52:37;13.90;;;3.80;;
1977;SDS011;989;53.016;8.346;2022-08-21T08:55:21;12.73;;;3.70;;
1977;SDS011;989;53.016;8.346;2022-08-21T08:58:04;12.07;;;3.10;;
1977;SDS011;989;53.016;8.346;2022-08-21T09:00:30;11.70;;;4.23;;
1977;SDS011;989;53.016;8.346;2022-08-21T09:02:57;11.73;;;3.07;;
1977;SDS011;989;53.016;8.346;2022-08-21T09:05:38;9.43;;;3.10;;
1977;SDS011;989;53.016;8.346;2022-08-21T09:11:51;9.23;;;3.00;;
1977;SDS011;989;53.016;8.346;2022-08-21T09:17:15;10.13;;;3.33;;
1977;SDS011;989;53.016;8.346;2022-08-21T09:25:39;8.97;;;3.87;;
1977;SDS011;989;53.016;8.346;2022-08-21T09:28:15;19.23;;;3.40;;
1977;SDS011;989;53.016;8.346;2022-08-21T09:30:41;15.30;;;3.47;;
1977;SDS011;989;53.016;8.346;2022-08-21T09:33:07;7.07;;;2.90;;
1977;SDS011;989;53.016;8.346;2022-08-21T09:35:47;12.73;;;3.10;;
1977;SDS011;989;53.016;8.346;2022-08-21T09:38:33;8.03;;;2.47;;
1977;SDS011;989;53.016;8.346;2022-08-21T09:43:31;4.53;;;2.70;;
1977;SDS011;989;53.016;8.346;2022-08-21T09:46:10;8.10;;;4.07;;
1977;SDS011;989;53.016;8.346;2022-08-21T09:48:47;9.27;;;2.90;;
1977;SDS011;989;53.016;8.346;2022-08-21T09:51:24;5.80;;;2.13;;
1977;SDS011;989;53.016;8.346;2022-08-21T09:56:37;5.37;;;2.70;;
1977;SDS011;989;53.016;8.346;2022-08-21T09:59:36;7.87;;;2.43;;
1977;SDS011;989;53.016;8.346;2022-08-21T10:05:01;7.97;;;2.53;;
1977;SDS011;989;53.016;8.346;2022-08-21T10:07:39;6.40;;;2.50;;
1977;SDS011;989;53.016;8.346;2022-08-21T10:15:23;7.73;;;1.83;;
1977;SDS011;989;53.016;8.346;2022-08-21T10:21:30;3.63;;;2.03;;
1977;SDS011;989;53.016;8.346;2022-08-21T10:30:08;5.60;;;2.53;;
1977;SDS011;989;53.016;8.346;2022-08-21T10:32:54;4.10;;;1.97;;
1977;SDS011;989;53.016;8.346;2022-08-21T10:35:53;5.57;;;2.27;;
1977;SDS011;989;53.016;8.346;2022-08-21T10:38:45;4.30;;;2.27;;
1977;SDS011;989;53.016;8.346;2022-08-21T10:42:01;15.17;;;2.80;;
1977;SDS011;989;53.016;8.346;2022-08-21T10:44:57;7.40;;;2.30;;
1977;SDS011;989;53.016;8.346;2022-08-21T10:47:35;15.43;;;2.27;;
1977;SDS011;989;53.016;8.346;2022-08-21T10:50:17;7.07;;;2.63;;
1977;SDS011;989;53.016;8.346;2022-08-21T10:55:35;5.87;;;2.40;;
1977;SDS011;989;53.016;8.346;2022-08-21T10:58:25;6.60;;;2.60;;
1977;SDS011;989;53.016;8.346;2022-08-21T11:01:08;7.80;;;2.87;;
1977;SDS011;989;53.016;8.346;2022-08-21T11:03:46;11.23;;;2.67;;
1977;SDS011;989;53.016;8.346;2022-08-21T11:06:24;4.33;;;2.40;;
1977;SDS011;989;53.016;8.346;2022-08-21T11:08:54;5.60;;;2.00;;
1977;SDS011;989;53.016;8.346;2022-08-21T11:11:40;5.57;;;2.53;;
1977;SDS011;989;53.016;8.346;2022-08-21T11:17:22;8.93;;;3.10;;
1977;SDS011;989;53.016;8.346;2022-08-21T11:19:59;4.47;;;2.60;;
1977;SDS011;989;53.016;8.346;2022-08-21T11:22:54;5.87;;;1.93;;
1977;SDS011;989;53.016;8.346;2022-08-21T11:28:09;8.13;;;3.40;;
1977;SDS011;989;53.016;8.346;2022-08-21T11:50:33;8.40;;;2.43;;
1977;SDS011;989;53.016;8.346;2022-08-21T11:53:13;5.90;;;2.53;;
1977;SDS011;989;53.016;8.346;2022-08-21T11:55:51;10.13;;;2.70;;
1977;SDS011;989;53.016;8.346;2022-08-21T11:58:44;7.53;;;2.37;;
1977;SDS011;989;53.016;8.346;2022-08-21T12:01:24;8.30;;;2.40;;
1977;SDS011;989;53.016;8.346;2022-08-21T12:03:57;7.57;;;2.60;;
1977;SDS011;989;53.016;8.346;2022-08-21T12:06:35;5.37;;;2.33;;
1977;SDS011;989;53.016;8.346;2022-08-21T12:11:59;9.67;;;2.63;;
1977;SDS011;989;53.016;8.346;2022-08-21T12:17:59;7.10;;;2.60;;
1977;SDS011;989;53.016;8.346;2022-08-21T12:25:39;7.90;;;2.90;;
1977;SDS011;989;53.016;8.346;2022-08-21T12:28:28;4.67;;;2.97;;
1977;SDS011;989;53.016;8.346;2022-08-21T12:30:56;7.40;;;2.50;;
1977;SDS011;989;53.016;8.346;2022-08-21T12:36:02;5.07;;;2.50;;
1977;SDS011;989;53.016;8.346;2022-08-21T12:41:20;7.33;;;2.40;;
1977;SDS011;989;53.016;8.346;2022-08-21T12:43:56;7.23;;;2.40;;
1977;SDS011;989;53.016;8.346;2022-08-21T12:46:51;8.37;;;2.77;;
1977;SDS011;989;53.016;8.346;2022-08-21T12:49:26;6.33;;;2.83;;
1977;SDS011;989;53.016;8.346;2022-08-21T12:52:19;3.40;;;2.33;;
1977;SDS011;989;53.016;8.346;2022-08-21T12:54:54;8.90;;;2.13;;
1977;SDS011;989;53.016;8.346;2022-08-21T12:57:22;4.30;;;2.23;;
1977;SDS011;989;53.016;8.346;2022-08-21T12:59:57;8.40;;;2.70;;
1977;SDS011;989;53.016;8.346;2022-08-21T13:02:35;6.83;;;2.50;;
1977;SDS011;989;53.016;8.346;2022-08-21T13:05:11;13.07;;;2.70;;
1977;SDS011;989;53.016;8.346;2022-08-21T13:07:44;4.57;;;2.40;;
1977;SDS011;989;53.016;8.346;2022-08-21T13:10:23;9.50;;;3.03;;
1977;SDS011;989;53.016;8.346;2022-08-21T13:13:01;8.73;;;2.57;;
1977;SDS011;989;53.016;8.346;2022-08-21T13:15:33;13.73;;;2.00;;
1977;SDS011;989;53.016;8.346;2022-08-21T13:18:02;15.50;;;2.47;;
1977;SDS011;989;53.016;8.346;2022-08-21T13:20:35;4.53;;;2.57;;
1977;SDS011;989;53.016;8.346;2022-08-21T13:23:18;5.93;;;2.20;;
1977;SDS011;989;53.016;8.346;2022-08-21T13:25:54;5.73;;;2.07;;
1977;SDS011;989;53.016;8.346;2022-08-21T13:28:21;3.40;;;2.33;;
1977;SDS011;989;53.016;8.346;2022-08-21T13:30:48;6.40;;;2.67;;
1977;SDS011;989;53.016;8.346;2022-08-21T13:33:18;10.67;;;2.63;;
1977;SDS011;989;53.016;8.346;2022-08-21T13:38:33;8.80;;;3.13;;
1977;SDS011;989;53.016;8.346;2022-08-21T13:43:56;7.47;;;2.80;;
1977;SDS011;989;53.016;8.346;2022-08-21T13:46:26;6.03;;;3.07;;
1977;SDS011;989;53.016;8.346;2022-08-21T13:48:58;6.43;;;2.83;;
1977;SDS011;989;53.016;8.346;2022-08-21T13:51:25;4.73;;;2.50;;
1977;SDS011;989;53.016;8.346;2022-08-21T13:53:52;6.80;;;2.80;;
1977;SDS011;989;53.016;8.346;2022-08-21T13:56:23;8.10;;;2.50;;
1977;SDS011;989;53.016;8.346;2022-08-21T13:58:58;5.93;;;2.40;;
1977;SDS011;989;53.016;8.346;2022-08-21T14:04:14;5.97;;;2.40;;
1977;SDS011;989;53.016;8.346;2022-08-21T14:06:45;5.80;;;2.83;;
1977;SDS011;989;53.016;8.346;2022-08-21T14:09:13;4.83;;;2.40;;
1977;SDS011;989;53.016;8.346;2022-08-21T14:11:58;7.00;;;2.83;;
1977;SDS011;989;53.016;8.346;2022-08-21T14:14:56;6.03;;;2.27;;
1977;SDS011;989;53.016;8.346;2022-08-21T14:17:28;6.57;;;2.37;;
1977;SDS011;989;53.016;8.346;2022-08-21T14:20:06;8.60;;;2.60;;
1977;SDS011;989;53.016;8.346;2022-08-21T14:22:51;2.93;;;2.00;;
1977;SDS011;989;53.016;8.346;2022-08-21T14:30:41;3.93;;;2.00;;
1977;SDS011;989;53.016;8.346;2022-08-21T14:33:09;8.27;;;2.40;;
1977;SDS011;989;53.016;8.346;2022-08-21T14:35:39;4.80;;;2.07;;
1977;SDS011;989;53.016;8.346;2022-08-21T14:41:04;9.13;;;2.97;;
1977;SDS011;989;53.016;8.346;2022-08-21T14:43:44;4.03;;;1.90;;
1977;SDS011;989;53.016;8.346;2022-08-21T14:46:17;5.03;;;2.40;;
1977;SDS011;989;53.016;8.346;2022-08-21T14:48:49;3.60;;;1.67;;
1977;SDS011;989;53.016;8.346;2022-08-21T14:51:15;3.87;;;1.90;;
1977;SDS011;989;53.016;8.346;2022-08-21T14:53:41;4.00;;;2.20;;
1977;SDS011;989;53.016;8.346;2022-08-21T14:56:08;4.20;;;2.10;;
1977;SDS011;989;53.016;8.346;2022-08-21T14:58:36;3.00;;;1.97;;
1977;SDS011;989;53.016;8.346;2022-08-21T15:01:06;3.07;;;1.97;;
1977;SDS011;989;53.016;8.346;2022-08-21T15:03:34;6.50;;;2.00;;
1977;SDS011;989;53.016;8.346;2022-08-21T15:06:01;3.90;;;1.70;;
1977;SDS011;989;53.016;8.346;2022-08-21T15:08:28;6.77;;;2.10;;
1977;SDS011;989;53.016;8.346;2022-08-21T15:10:54;5.70;;;2.20;;
1977;SDS011;989;53.016;8.346;2022-08-21T15:13:20;2.00;;;1.50;;
1977;SDS011;989;53.016;8.346;2022-08-21T15:15:47;4.10;;;2.10;;
1977;SDS011;989;53.016;8.346;2022-08-21T15:18:17;4.70;;;1.83;;
1977;SDS011;989;53.016;8.346;2022-08-21T15:20:45;4.87;;;2.00;;
1977;SDS011;989;53.016;8.346;2022-08-21T15:23:11;3.87;;;1.73;;
1977;SDS011;989;53.016;8.346;2022-08-21T15:25:40;4.23;;;1.50;;
1977;SDS011;989;53.016;8.346;2022-08-21T15:28:08;4.10;;;1.90;;
1977;SDS011;989;53.016;8.346;2022-08-21T15:30:35;4.70;;;1.97;;
1977;SDS011;989;53.016;8.346;2022-08-21T15:33:03;5.20;;;1.80;;
1977;SDS011;989;53.016;8.346;2022-08-21T15:35:29;2.73;;;1.80;;
1977;SDS011;989;53.016;8.346;2022-08-21T15:37:55;4.97;;;2.17;;
1977;SDS011;989;53.016;8.346;2022-08-21T15:40:21;3.80;;;1.97;;
1977;SDS011;989;53.016;8.346;2022-08-21T15:42:47;4.27;;;2.07;;
1977;SDS011;989;53.016;8.346;2022-08-21T15:45:13;3.20;;;1.60;;
1977;SDS011;989;53.016;8.346;2022-08-21T15:47:42;12.50;;;2.00;;
1977;SDS011;989;53.016;8.346;2022-08-21T15:50:10;7.03;;;1.80;;
1977;SDS011;989;53.016;8.346;2022-08-21T15:52:36;7.63;;;2.50;;
1977;SDS011;989;53.016;8.346;2022-08-21T15:55:02;7.33;;;2.70;;
1977;SDS011;989;53.016;8.346;2022-08-21T15:57:32;3.70;;;1.73;;
1977;SDS011;989;53.016;8.346;2022-08-21T16:00:03;4.57;;;1.70;;
1977;SDS011;989;53.016;8.346;2022-08-21T16:02:39;1.90;;;1.47;;
1977;SDS011;989;53.016;8.346;2022-08-21T16:05:09;3.27;;;2.00;;
1977;SDS011;989;53.016;8.346;2022-08-21T16:07:37;3.10;;;1.80;;
1977;SDS011;989;53.016;8.346;2022-08-21T16:10:04;5.20;;;1.93;;
1977;SDS011;989;53.016;8.346;2022-08-21T16:12:32;4.53;;;1.77;;
1977;SDS011;989;53.016;8.346;2022-08-21T16:15:05;3.13;;;1.70;;
1977;SDS011;989;53.016;8.346;2022-08-21T16:17:35;6.60;;;2.30;;
1977;SDS011;989;53.016;8.346;2022-08-21T16:20:06;7.20;;;2.73;;
1977;SDS011;989;53.016;8.346;2022-08-21T16:22:36;5.70;;;2.13;;
1977;SDS011;989;53.016;8.346;2022-08-21T16:25:03;5.40;;;2.20;;
1977;SDS011;989;53.016;8.346;2022-08-21T16:27:30;3.33;;;1.80;;
1977;SDS011;989;53.016;8.346;2022-08-21T16:29:57;4.80;;;2.17;;
1977;SDS011;989;53.016;8.346;2022-08-21T16:32:22;4.07;;;1.70;;
1977;SDS011;989;53.016;8.346;2022-08-21T16:34:48;3.43;;;1.57;;
1977;SDS011;989;53.016;8.346;2022-08-21T16:37:15;5.00;;;1.63;;
1977;SDS011;989;53.016;8.346;2022-08-21T16:39:42;5.20;;;2.37;;
1977;SDS011;989;53.016;8.346;2022-08-21T16:42:09;3.10;;;2.50;;
1977;SDS011;989;53.016;8.346;2022-08-21T16:44:42;8.10;;;2.50;;
1977;SDS011;989;53.016;8.346;2022-08-21T16:47:08;6.00;;;2.20;;
1977;SDS011;989;53.016;8.346;2022-08-21T16:49:33;6.90;;;2.00;;
1977;SDS011;989;53.016;8.346;2022-08-21T16:51:59;4.70;;;2.03;;
1977;SDS011;989;53.016;8.346;2022-08-21T16:54:25;6.73;;;2.30;;
1977;SDS011;989;53.016;8.346;2022-08-21T16:56:51;5.80;;;2.07;;
1977;SDS011;989;53.016;8.346;2022-08-21T16:59:16;6.00;;;2.23;;
1977;SDS011;989;53.016;8.346;2022-08-21T17:01:42;7.97;;;2.60;;
1977;SDS011;989;53.016;8.346;2022-08-21T17:04:08;7.73;;;1.90;;
1977;SDS011;989;53.016;8.346;2022-08-21T17:06:34;3.00;;;2.03;;
1977;SDS011;989;53.016;8.346;2022-08-21T17:09:00;6.17;;;2.60;;
1977;SDS011;989;53.016;8.346;2022-08-21T17:11:30;5.53;;;2.47;;
1977;SDS011;989;53.016;8.346;2022-08-21T17:14:03;11.33;;;2.90;;
1977;SDS011;989;53.016;8.346;2022-08-21T17:16:44;8.43;;;3.10;;
1977;SDS011;989;53.016;8.346;2022-08-21T17:19:13;5.30;;;2.67;;
1977;SDS011;989;53.016;8.346;2022-08-21T17:21:39;5.40;;;2.10;;
1977;SDS011;989;53.016;8.346;2022-08-21T17:24:04;10.67;;;2.77;;
1977;SDS011;989;53.016;8.346;2022-08-21T17:26:31;10.53;;;2.47;;